Terminal Aerodrome Forecast
Issued by NWS

Home | Current Version | Previous Version | Text Only | Print | Product List | Glossary On
Versions: 1 2 3 4 5 6 7 8 9 10 11 12 13 14
000
FTUS44 KTSA 272300
TAFRVS
TAF
KRVS 272324Z 2800/2824 04012KT P6SM FEW070 BKN110
     FM280600 03006KT P6SM SCT120
     FM281500 03010KT P6SM FEW250=

USA.gov is the U.S. government's official web portal to all federal, state and local government web resources and services.